createdAt,value
2019-03-03T00:00:22.490Z,6.09
2019-03-03T00:02:51.295Z,6.08
2019-03-03T00:05:19.782Z,6.19
2019-03-03T00:07:48.203Z,6.13
2019-03-03T00:10:16.845Z,6.18
2019-03-03T00:12:45.259Z,6.19
2019-03-03T00:15:13.993Z,6.09
2019-03-03T00:17:42.477Z,6.13
2019-03-03T00:20:12.926Z,6.09
2019-03-03T00:22:41.415Z,6.18
2019-03-03T00:25:11.404Z,6.11
2019-03-03T00:27:39.957Z,6.03
2019-03-03T00:30:13.856Z,6.06
2019-03-03T00:32:42.312Z,6.08
2019-03-03T00:35:10.932Z,6.07
2019-03-03T00:37:53.040Z,5.99
2019-03-03T00:40:39.379Z,5.98
2019-03-03T00:43:24.455Z,5.93
2019-03-03T00:46:12.022Z,5.98
2019-03-03T00:48:47.790Z,6.09
2019-03-03T00:51:17.863Z,5.91
2019-03-03T00:53:47.991Z,6.11
2019-03-03T00:56:18.075Z,6.04
2019-03-03T00:59:00.062Z,6.05
2019-03-03T01:01:39.029Z,6.14
2019-03-03T01:04:15.515Z,6.07
2019-03-03T01:06:54.944Z,6.10
2019-03-03T01:09:43.463Z,6.17
2019-03-03T01:12:13.682Z,6.15
2019-03-03T01:14:59.960Z,6.16
2019-03-03T01:17:32.938Z,6.10
2019-03-03T01:20:15.127Z,6.16
2019-03-03T01:23:03.157Z,6.12
2019-03-03T01:25:31.466Z,6.24
2019-03-03T01:27:59.899Z,6.17
2019-03-03T01:30:28.411Z,6.19
2019-03-03T01:32:56.883Z,6.15
2019-03-03T01:35:25.360Z,6.17
2019-03-03T01:37:53.797Z,6.27
2019-03-03T01:40:22.308Z,6.14
2019-03-03T01:42:50.814Z,6.04
2019-03-03T01:45:19.449Z,6.15
2019-03-03T01:47:47.901Z,6.25
2019-03-03T01:50:16.381Z,6.13
2019-03-03T01:52:45.161Z,6.17
2019-03-03T01:55:14.015Z,6.23
2019-03-03T01:57:42.493Z,6.22
2019-03-03T02:00:28.096Z,6.33
2019-03-03T02:03:01.343Z,6.21
2019-03-03T02:05:29.915Z,6.22
2019-03-03T02:07:58.456Z,6.19
2019-03-03T02:10:27.044Z,6.31
2019-03-03T02:12:55.645Z,6.35
2019-03-03T02:15:24.390Z,6.36
2019-03-03T02:17:53.178Z,6.27
2019-03-03T02:20:21.744Z,6.28
2019-03-03T02:22:50.158Z,6.21
2019-03-03T02:25:18.747Z,6.29
2019-03-03T02:27:47.163Z,6.23
2019-03-03T02:30:18.793Z,6.32
2019-03-03T02:32:47.450Z,6.35
2019-03-03T02:35:15.999Z,6.46
2019-03-03T02:37:44.645Z,6.34
2019-03-03T02:40:18.425Z,6.31
2019-03-03T02:42:46.977Z,6.39
2019-03-03T02:45:16.695Z,6.23
2019-03-03T02:47:45.264Z,6.30
2019-03-03T02:50:17.083Z,6.38
2019-03-03T02:52:45.669Z,6.25
2019-03-03T02:55:15.663Z,6.19
2019-03-03T02:57:44.567Z,6.16
2019-03-03T03:00:20.933Z,6.08
2019-03-03T03:02:53.855Z,6.04
2019-03-03T03:05:31.340Z,6.10
2019-03-03T03:08:01.402Z,6.16
2019-03-03T03:10:43.011Z,6.22
2019-03-03T03:13:15.809Z,6.19
2019-03-03T03:15:45.889Z,6.26
2019-03-03T03:18:21.566Z,6.27
2019-03-03T03:21:07.072Z,6.33
2019-03-03T03:23:39.592Z,6.33
2019-03-03T03:26:09.685Z,6.30
2019-03-03T03:28:42.457Z,6.27
2019-03-03T03:31:28.861Z,6.37
2019-03-03T03:34:10.702Z,6.30
2019-03-03T03:36:43.291Z,6.28
2019-03-03T03:39:19.415Z,6.19
2019-03-03T03:42:01.408Z,6.17
2019-03-03T03:44:40.726Z,6.23
2019-03-03T03:47:13.510Z,6.18
2019-03-03T03:49:49.528Z,6.21
2019-03-03T03:52:25.790Z,6.24
2019-03-03T03:55:05.565Z,6.26
2019-03-03T03:57:41.590Z,6.21
2019-03-03T04:00:15.025Z,6.22
2019-03-03T04:02:45.093Z,6.23
2019-03-03T04:05:31.348Z,6.18
2019-03-03T04:08:07.381Z,6.18
2019-03-03T04:10:49.527Z,6.20
2019-03-03T04:13:31.231Z,6.17
2019-03-03T04:16:19.604Z,6.14
2019-03-03T04:18:52.717Z,6.17
2019-03-03T04:21:25.942Z,6.16
2019-03-03T04:24:05.256Z,6.02
2019-03-03T04:26:46.823Z,6.15
2019-03-03T04:29:16.977Z,6.04
2019-03-03T04:31:47.030Z,5.94
2019-03-03T04:34:32.508Z,5.99
2019-03-03T04:37:14.847Z,5.98
2019-03-03T04:39:57.138Z,5.94
2019-03-03T04:42:43.818Z,5.97
2019-03-03T04:45:14.238Z,6.04
2019-03-03T04:47:56.298Z,5.93
2019-03-03T04:50:29.206Z,5.94
2019-03-03T04:53:11.337Z,5.94
2019-03-03T04:55:44.527Z,5.77
2019-03-03T04:58:30.679Z,5.88
2019-03-03T05:01:00.782Z,5.84
2019-03-03T05:03:33.323Z,5.92
2019-03-03T05:06:06.730Z,5.87
2019-03-03T05:08:36.867Z,5.92
2019-03-03T05:11:15.757Z,5.86
2019-03-03T05:13:51.720Z,5.73
2019-03-03T05:16:30.545Z,5.83
2019-03-03T05:19:00.639Z,5.95
2019-03-03T05:21:29.052Z,5.74
2019-03-03T05:23:57.468Z,5.71
2019-03-03T05:26:25.986Z,5.78
2019-03-03T05:28:54.428Z,5.78
2019-03-03T05:31:22.864Z,5.66
2019-03-03T05:33:51.287Z,5.65
2019-03-03T05:36:19.797Z,5.67
2019-03-03T05:38:48.217Z,5.64
2019-03-03T05:41:16.622Z,5.67
2019-03-03T05:43:45.107Z,5.56
2019-03-03T05:46:13.524Z,5.63
2019-03-03T05:48:41.972Z,5.65
2019-03-03T05:51:10.469Z,5.62
2019-03-03T05:53:38.878Z,5.52
2019-03-03T05:56:07.312Z,5.48
2019-03-03T05:58:35.734Z,5.48
2019-03-03T06:01:04.429Z,5.42
2019-03-03T06:03:32.931Z,5.35
2019-03-03T06:06:01.354Z,5.33
2019-03-03T06:08:29.766Z,5.46
2019-03-03T06:10:58.397Z,5.51
2019-03-03T06:13:26.816Z,5.58
2019-03-03T06:15:55.238Z,5.49
2019-03-03T06:18:23.758Z,5.48
2019-03-03T06:20:52.177Z,5.55
2019-03-03T06:23:20.687Z,5.49
2019-03-03T06:25:49.131Z,5.49
2019-03-03T06:28:17.584Z,5.59
2019-03-03T06:30:46.094Z,5.68
2019-03-03T06:33:14.611Z,5.65
2019-03-03T06:35:43.102Z,5.76
2019-03-03T06:38:11.635Z,5.86
2019-03-03T06:40:40.122Z,5.83
2019-03-03T06:43:08.544Z,5.88
2019-03-03T06:45:37.054Z,6.00
2019-03-03T06:48:05.618Z,6.10
2019-03-03T06:50:34.131Z,6.14
2019-03-03T06:53:02.572Z,6.15
2019-03-03T06:55:31.019Z,6.17
2019-03-03T06:57:59.436Z,6.05
2019-03-03T07:00:27.911Z,6.13
2019-03-03T07:02:56.349Z,6.23
2019-03-03T07:05:26.093Z,6.20
2019-03-03T07:07:54.607Z,6.32
2019-03-03T07:10:23.026Z,6.27
2019-03-03T07:12:51.454Z,6.25
2019-03-03T07:15:19.893Z,6.28
2019-03-03T07:17:48.348Z,6.33
2019-03-03T07:20:16.878Z,6.40
2019-03-03T07:22:45.363Z,6.49
2019-03-03T07:25:14.616Z,6.62
2019-03-03T07:27:43.154Z,6.72
2019-03-03T07:30:13.807Z,6.94
2019-03-03T07:32:47.004Z,7.43
2019-03-03T07:35:15.454Z,7.78
2019-03-03T07:37:43.867Z,8.12
2019-03-03T07:40:12.424Z,8.52
2019-03-03T07:42:40.900Z,8.77
2019-03-03T07:45:14.718Z,8.98
2019-03-03T07:47:43.209Z,9.16
2019-03-03T07:50:11.793Z,9.09
2019-03-03T07:52:40.209Z,9.36
2019-03-03T07:55:10.080Z,9.42
2019-03-03T07:57:38.652Z,9.82
2019-03-03T08:00:10.257Z,10.08
2019-03-03T08:02:38.753Z,10.15
2019-03-03T08:05:08.904Z,10.28
2019-03-03T08:07:37.691Z,10.84
2019-03-03T08:10:13.473Z,11.93
2019-03-03T08:12:42.041Z,11.81
2019-03-03T08:15:19.498Z,11.95
2019-03-03T08:17:48.090Z,11.26
2019-03-03T08:20:16.701Z,11.18
2019-03-03T08:22:45.245Z,11.00
2019-03-03T08:25:14.317Z,10.96
2019-03-03T08:27:42.873Z,10.74
2019-03-03T08:30:16.686Z,10.74
2019-03-03T08:32:45.167Z,10.62
2019-03-03T08:35:16.097Z,10.29
2019-03-03T08:37:44.716Z,10.15
2019-03-03T08:40:13.297Z,10.12
2019-03-03T08:42:55.245Z,9.99
2019-03-03T08:45:25.342Z,9.91
2019-03-03T08:48:13.476Z,9.79
2019-03-03T08:50:46.481Z,9.75
2019-03-03T08:53:19.057Z,9.55
2019-03-03T08:55:49.121Z,9.66
2019-03-03T08:58:24.811Z,9.72
2019-03-03T09:01:01.763Z,10.06
2019-03-03T09:03:40.833Z,11.33
2019-03-03T09:06:11.286Z,12.98
2019-03-03T09:08:47.503Z,13.96
2019-03-03T09:11:26.861Z,14.19
2019-03-03T09:14:06.249Z,13.51
2019-03-03T09:16:53.126Z,12.51
2019-03-03T09:19:39.341Z,12.01
2019-03-03T09:22:09.513Z,12.00
2019-03-03T09:24:56.168Z,11.92
2019-03-03T09:27:38.414Z,11.70
2019-03-03T09:30:17.741Z,11.75
2019-03-03T09:33:04.160Z,11.47
2019-03-03T09:35:40.257Z,11.44
2019-03-03T09:38:10.368Z,11.15
2019-03-03T09:40:45.925Z,11.15
2019-03-03T09:43:18.413Z,10.87
2019-03-03T09:45:51.535Z,10.94
2019-03-03T09:48:25.342Z,10.98
2019-03-03T09:50:55.491Z,10.93
2019-03-03T09:53:31.572Z,10.86
2019-03-03T09:56:04.436Z,10.57
2019-03-03T09:58:50.463Z,10.30
2019-03-03T10:01:20.626Z,10.27
2019-03-03T10:04:02.810Z,10.36
2019-03-03T10:06:35.950Z,10.24
2019-03-03T10:09:13.731Z,10.12
2019-03-03T10:11:55.920Z,10.03
2019-03-03T10:14:25.988Z,10.02
2019-03-03T10:17:08.334Z,10.12
2019-03-03T10:19:50.445Z,10.31
2019-03-03T10:22:20.577Z,10.44
2019-03-03T10:24:59.789Z,10.79
2019-03-03T10:27:38.710Z,10.72
2019-03-03T10:30:27.034Z,10.47
2019-03-03T10:33:05.782Z,10.81
2019-03-03T10:35:41.671Z,11.51
2019-03-03T10:38:20.908Z,12.41
2019-03-03T10:41:07.294Z,11.72
2019-03-03T10:43:43.583Z,11.22
2019-03-03T10:46:22.740Z,10.89
2019-03-03T10:48:55.549Z,10.59
2019-03-03T10:51:32.734Z,10.70
2019-03-03T10:54:03.019Z,10.53
2019-03-03T10:56:33.271Z,10.28
2019-03-03T10:59:03.415Z,10.35
2019-03-03T11:01:50.173Z,10.44
2019-03-03T11:04:20.231Z,10.70
2019-03-03T11:06:50.540Z,10.67
2019-03-03T11:09:28.376Z,10.86
2019-03-03T11:12:15.740Z,10.89
2019-03-03T11:14:45.865Z,10.87
2019-03-03T11:17:16.089Z,10.79
2019-03-03T11:19:52.354Z,10.73
2019-03-03T11:22:22.823Z,10.60
2019-03-03T11:24:58.819Z,10.60
2019-03-03T11:27:38.229Z,10.50
2019-03-03T11:30:16.219Z,10.39
2019-03-03T11:32:46.364Z,10.35
2019-03-03T11:35:33.367Z,10.26
2019-03-03T11:38:09.409Z,10.06
2019-03-03T11:40:42.197Z,10.07
2019-03-03T11:43:24.499Z,10.21
2019-03-03T11:46:09.738Z,10.29
2019-03-03T11:48:39.826Z,10.44
2019-03-03T11:51:13.054Z,10.51
2019-03-03T11:53:45.861Z,10.72
2019-03-03T11:56:16.087Z,11.01
2019-03-03T11:58:55.329Z,11.26
2019-03-03T12:01:37.509Z,11.55
2019-03-03T12:04:10.808Z,11.74
2019-03-03T12:06:59.357Z,11.96
2019-03-03T12:09:35.621Z,12.21
2019-03-03T12:12:15.160Z,12.06
2019-03-03T12:14:48.315Z,12.21
2019-03-03T12:17:18.532Z,12.15
2019-03-03T12:20:07.128Z,12.09
2019-03-03T12:22:43.234Z,12.14
2019-03-03T12:25:13.352Z,12.10
2019-03-03T12:27:59.735Z,12.17
2019-03-03T12:30:35.871Z,12.27
2019-03-03T12:33:21.202Z,12.32
2019-03-03T12:35:54.226Z,12.20
2019-03-03T12:38:24.372Z,12.21
2019-03-03T12:41:12.734Z,12.06
2019-03-03T12:43:51.686Z,11.95
2019-03-03T12:46:24.785Z,12.01
2019-03-03T12:48:57.863Z,12.17
2019-03-03T12:51:43.102Z,12.24
2019-03-03T12:54:13.203Z,12.18
2019-03-03T12:56:55.269Z,12.39
2019-03-03T12:59:31.410Z,12.66
2019-03-03T13:02:01.483Z,12.54
2019-03-03T13:04:40.607Z,12.79
2019-03-03T13:07:27.027Z,12.97
2019-03-03T13:10:05.683Z,13.17
2019-03-03T13:12:35.843Z,13.03
2019-03-03T13:15:11.516Z,13.24
2019-03-03T13:17:48.159Z,13.18
2019-03-03T13:20:26.071Z,13.15
2019-03-03T13:23:08.259Z,13.28
2019-03-03T13:25:40.815Z,13.51
2019-03-03T13:28:10.987Z,13.33
2019-03-03T13:30:57.287Z,13.20
2019-03-03T13:33:27.387Z,13.29
2019-03-03T13:35:57.522Z,13.14
2019-03-03T13:38:36.610Z,12.97
2019-03-03T13:41:09.839Z,12.78
2019-03-03T13:43:38.253Z,12.88
2019-03-03T13:46:06.852Z,12.95
2019-03-03T13:48:35.284Z,12.86
2019-03-03T13:51:03.760Z,12.99
2019-03-03T13:53:32.214Z,12.92
2019-03-03T13:56:00.719Z,12.98
2019-03-03T13:58:29.323Z,12.84
2019-03-03T14:00:58.324Z,12.78
2019-03-03T14:03:26.762Z,12.75
2019-03-03T14:05:55.266Z,12.70
2019-03-03T14:08:23.789Z,12.69
2019-03-03T14:10:52.331Z,12.66
2019-03-03T14:13:20.891Z,12.52
2019-03-03T14:15:49.379Z,12.77
2019-03-03T14:18:17.909Z,12.54
2019-03-03T14:20:46.405Z,12.42
2019-03-03T14:23:14.907Z,12.45
2019-03-03T14:25:43.502Z,12.51
2019-03-03T14:28:12.009Z,12.47
2019-03-03T14:30:40.544Z,12.30
2019-03-03T14:33:09.092Z,12.34
2019-03-03T14:35:37.631Z,12.42
2019-03-03T14:38:06.123Z,12.51
2019-03-03T14:40:34.654Z,12.43
2019-03-03T14:43:03.152Z,12.34
2019-03-03T14:45:31.750Z,12.36
2019-03-03T14:48:00.175Z,12.32
2019-03-03T14:50:28.677Z,12.22
2019-03-03T14:52:59.086Z,12.14
2019-03-03T14:55:27.611Z,12.20
2019-03-03T14:57:56.062Z,12.13
2019-03-03T15:00:29.673Z,12.11
2019-03-03T15:02:59.863Z,12.27
2019-03-03T15:05:28.623Z,12.18
2019-03-03T15:07:57.346Z,12.28
2019-03-03T15:10:25.840Z,12.32
2019-03-03T15:12:54.416Z,12.26
2019-03-03T15:15:25.673Z,12.29
2019-03-03T15:17:54.265Z,12.17
2019-03-03T15:20:22.732Z,12.12
2019-03-03T15:22:51.245Z,12.15
2019-03-03T15:25:19.828Z,12.03
2019-03-03T15:27:48.423Z,11.99
2019-03-03T15:30:21.809Z,11.93
2019-03-03T15:32:50.555Z,11.96
2019-03-03T15:35:19.133Z,11.94
2019-03-03T15:37:47.846Z,11.88
2019-03-03T15:40:21.236Z,11.84
2019-03-03T15:42:49.833Z,11.93
2019-03-03T15:45:21.079Z,11.86
2019-03-03T15:47:49.649Z,11.84
2019-03-03T15:50:19.727Z,11.81
2019-03-03T15:52:49.044Z,11.81
2019-03-03T15:55:25.976Z,11.72
2019-03-03T15:57:54.441Z,11.65
2019-03-03T16:00:46.386Z,11.72
2019-03-03T16:03:15.127Z,11.74
2019-03-03T16:05:43.909Z,11.65
2019-03-03T16:08:12.329Z,11.58
2019-03-03T16:10:40.803Z,11.55
2019-03-03T16:13:09.304Z,11.56
2019-03-03T16:15:37.871Z,11.66
2019-03-03T16:18:06.484Z,11.49
2019-03-03T16:20:35.087Z,11.62
2019-03-03T16:23:03.571Z,11.56
2019-03-03T16:25:32.174Z,11.58
2019-03-03T16:28:00.599Z,11.41
2019-03-03T16:30:29.187Z,11.37
2019-03-03T16:32:57.722Z,11.36
2019-03-03T16:35:26.222Z,11.35
2019-03-03T16:37:54.667Z,11.18
2019-03-03T16:40:24.248Z,11.12
2019-03-03T16:42:52.799Z,11.19
2019-03-03T16:45:21.683Z,11.11
2019-03-03T16:47:50.358Z,10.94
2019-03-03T16:50:20.464Z,10.88
2019-03-03T16:52:49.393Z,10.87
2019-03-03T16:55:19.110Z,10.81
2019-03-03T16:57:47.733Z,10.76
2019-03-03T17:00:19.408Z,10.74
2019-03-03T17:02:47.999Z,10.83
2019-03-03T17:05:19.102Z,10.68
2019-03-03T17:07:47.641Z,10.56
2019-03-03T17:10:16.226Z,10.68
2019-03-03T17:12:44.720Z,10.65
2019-03-03T17:15:15.721Z,10.61
2019-03-03T17:17:44.221Z,10.57
2019-03-03T17:20:12.862Z,10.48
2019-03-03T17:22:41.473Z,10.48
2019-03-03T17:25:21.820Z,10.49
2019-03-03T17:27:50.287Z,10.35
2019-03-03T17:30:20.844Z,10.42
2019-03-03T17:32:49.453Z,10.35
2019-03-03T17:35:18.022Z,10.41
2019-03-03T17:37:46.633Z,10.42
2019-03-03T17:40:23.035Z,10.41
2019-03-03T17:42:51.551Z,10.36
2019-03-03T17:45:21.559Z,10.25
2019-03-03T17:47:50.245Z,10.32
2019-03-03T17:50:26.324Z,10.22
2019-03-03T17:52:54.902Z,10.23
2019-03-03T17:55:23.464Z,10.17
2019-03-03T17:57:52.027Z,10.17
2019-03-03T18:00:29.352Z,9.93
2019-03-03T18:02:59.782Z,9.91
2019-03-03T18:05:28.391Z,9.78
2019-03-03T18:07:57.045Z,9.87
2019-03-03T18:10:25.697Z,9.86
2019-03-03T18:12:54.201Z,9.74
2019-03-03T18:15:22.727Z,9.84
2019-03-03T18:17:51.318Z,9.85
2019-03-03T18:20:21.745Z,9.81
2019-03-03T18:22:50.576Z,9.77
2019-03-03T18:25:22.506Z,9.77
2019-03-03T18:27:51.177Z,9.74
2019-03-03T18:30:29.315Z,9.91
2019-03-03T18:32:57.809Z,9.82
2019-03-03T18:35:26.402Z,9.77
2019-03-03T18:37:54.973Z,9.71
2019-03-03T18:40:25.511Z,9.60
2019-03-03T18:42:54.109Z,9.76
2019-03-03T18:45:23.899Z,9.76
2019-03-03T18:47:52.574Z,9.69
2019-03-03T18:50:23.114Z,9.66
2019-03-03T18:52:51.571Z,9.53
2019-03-03T18:55:20.195Z,9.53
2019-03-03T18:57:48.808Z,9.43
2019-03-03T19:00:22.584Z,9.34
2019-03-03T19:02:51.436Z,9.38
2019-03-03T19:05:20.027Z,9.45
2019-03-03T19:07:48.699Z,9.35
2019-03-03T19:10:19.472Z,9.42
2019-03-03T19:12:48.044Z,9.40
2019-03-03T19:15:20.992Z,9.32
2019-03-03T19:17:49.593Z,9.38
2019-03-03T19:20:22.292Z,9.39
2019-03-03T19:22:51.049Z,9.33
2019-03-03T19:25:19.818Z,9.18
2019-03-03T19:27:48.734Z,9.35
2019-03-03T19:30:28.177Z,9.32
2019-03-03T19:33:15.111Z,9.39
2019-03-03T19:35:43.767Z,9.40
2019-03-03T19:38:12.300Z,9.42
2019-03-03T19:40:40.838Z,9.38
2019-03-03T19:43:09.404Z,9.33
2019-03-03T19:45:52.824Z,9.24
2019-03-03T19:48:21.402Z,9.31
2019-03-03T19:50:49.966Z,9.10
2019-03-03T19:53:18.554Z,9.26
2019-03-03T19:55:47.049Z,9.21
2019-03-03T19:58:15.500Z,9.03
2019-03-03T20:00:44.718Z,9.09
2019-03-03T20:03:13.451Z,9.05
2019-03-03T20:05:42.033Z,8.98
2019-03-03T20:08:10.598Z,9.03
2019-03-03T20:10:39.389Z,9.01
2019-03-03T20:13:08.041Z,9.02
2019-03-03T20:15:37.079Z,9.10
2019-03-03T20:18:07.806Z,9.07
2019-03-03T20:20:37.394Z,9.06
2019-03-03T20:23:05.999Z,8.91
2019-03-03T20:25:34.589Z,9.06
2019-03-03T20:28:03.226Z,9.05
2019-03-03T20:30:32.104Z,9.04
2019-03-03T20:33:00.692Z,9.06
2019-03-03T20:35:29.270Z,9.32
2019-03-03T20:37:57.799Z,9.33
2019-03-03T20:40:27.466Z,9.47
2019-03-03T20:42:56.551Z,9.53
2019-03-03T20:45:32.176Z,9.68
2019-03-03T20:48:00.633Z,9.71
2019-03-03T20:50:29.536Z,9.57
2019-03-03T20:52:58.027Z,9.62
2019-03-03T20:55:31.253Z,9.60
2019-03-03T20:57:59.879Z,9.51
2019-03-03T21:00:30.512Z,9.57
2019-03-03T21:02:59.224Z,9.62
2019-03-03T21:05:27.843Z,9.73
2019-03-03T21:07:56.417Z,9.72
2019-03-03T21:10:26.963Z,9.72
2019-03-03T21:12:55.526Z,9.78
2019-03-03T21:15:24.423Z,9.77
2019-03-03T21:17:52.900Z,9.89
2019-03-03T21:20:24.699Z,9.81
2019-03-03T21:22:53.288Z,9.89
2019-03-03T21:25:21.857Z,9.80
2019-03-03T21:27:51.332Z,9.83
2019-03-03T21:30:27.044Z,9.80
2019-03-03T21:32:55.623Z,9.82
2019-03-03T21:35:24.519Z,9.90
2019-03-03T21:37:53.101Z,9.88
2019-03-03T21:40:23.066Z,10.00
2019-03-03T21:42:51.672Z,10.02
2019-03-03T21:45:21.899Z,9.91
2019-03-03T21:47:50.704Z,10.09
2019-03-03T21:50:23.610Z,9.98
2019-03-03T21:52:52.040Z,10.04
2019-03-03T21:55:20.651Z,10.03
2019-03-03T21:57:49.159Z,10.13
2019-03-03T22:00:48.281Z,10.02
2019-03-03T22:03:16.846Z,10.04
2019-03-03T22:05:45.450Z,9.99
2019-03-03T22:08:13.950Z,10.12
2019-03-03T22:10:42.436Z,10.10
2019-03-03T22:13:12.129Z,10.07
2019-03-03T22:15:40.733Z,10.05
2019-03-03T22:18:09.238Z,10.06
2019-03-03T22:20:38.837Z,10.01
2019-03-03T22:23:07.402Z,10.03
2019-03-03T22:25:35.898Z,9.88
2019-03-03T22:28:04.487Z,10.04
2019-03-03T22:30:32.989Z,10.05
2019-03-03T22:33:01.534Z,9.89
2019-03-03T22:35:29.973Z,9.84
2019-03-03T22:37:58.386Z,9.81
2019-03-03T22:40:26.949Z,9.89
2019-03-03T22:42:55.431Z,10.09
2019-03-03T22:45:23.999Z,10.02
2019-03-03T22:47:52.460Z,10.01
2019-03-03T22:50:21.740Z,10.20
2019-03-03T22:52:50.255Z,10.22
2019-03-03T22:55:22.727Z,10.25
2019-03-03T22:57:51.180Z,10.20
2019-03-03T23:00:45.223Z,10.09
2019-03-03T23:03:25.710Z,10.08
2019-03-03T23:06:08.856Z,10.10
2019-03-03T23:08:55.574Z,10.01
2019-03-03T23:11:30.011Z,10.01
2019-03-03T23:14:10.628Z,10.07
2019-03-03T23:16:42.130Z,9.96
2019-03-03T23:19:39.346Z,9.90
2019-03-03T23:22:16.505Z,10.03
2019-03-03T23:25:00.251Z,10.11
2019-03-03T23:27:29.070Z,10.06
2019-03-03T23:29:57.493Z,10.06
2019-03-03T23:32:26.021Z,10.04
2019-03-03T23:34:54.544Z,9.92
2019-03-03T23:37:22.952Z,9.91
2019-03-03T23:39:51.436Z,9.86
2019-03-03T23:42:19.898Z,9.92
2019-03-03T23:44:48.343Z,9.83
2019-03-03T23:47:16.838Z,9.90
2019-03-03T23:49:45.306Z,9.83
2019-03-03T23:52:13.738Z,9.86
2019-03-03T23:54:42.155Z,10.03
2019-03-03T23:57:10.614Z,9.99
2019-03-03T23:59:39.036Z,9.69
